Aérodrome :
LOGIN :

S'inscrire | Disclaimer

   EN    FR    IT 

 










Légende :    VFR   VFR Marginal   IFR   IFR Intensif   IFR Très Intensif
Visi : 
Plafond : 
>= 8 km
>= 3000ft
5 à 8 km
1000 à 3000 ft
1500m à 5 km
500 à 1000 ft
800 à 1500m
200 à 500 ft
< 800m
< 200 ft
Symboles :   Orages  Brouillard  Fortes neiges  Fortes précipitations  Vent > 20 kt
SIGMETs :   Divers  Orages  Givrage  Turbulence  Onde Orograph.  Cendres Volcan.






- Altitude de l'aérodrome : 412 ft
- Code IATA : ORE


LFOJ - Orleans

DERNIER METAR :
  • 172100Z AUTO 22009KT CAVOK 05/03 Q1025

METARs EXPIRÉS :
  • 172030Z AUTO 21009KT CAVOK 05/03 Q1025
  • 172000Z AUTO 22008KT CAVOK 05/03 Q1024
  • 171930Z AUTO 23009KT CAVOK 05/03 Q1024
  • 171900Z AUTO 23007KT CAVOK 05/03 Q1024
  • 171830Z AUTO 25009KT CAVOK 05/02 Q1024 NOSIG

TAF TAF LFOJ
Valide du 17 à 15h jusqu'au 18 à 15h UTC


171400Z 1715/1815 27016KT 9999 SCT030
PROB40
TEMPO 1715/1719 27018G28KT 4900 -SHRA SCT030TCU
PROB30
TEMPO 1802/1809 4900 BR BKN005
BECMG 1808/1811 24005KT
BECMG 1811/1813 VRB02KT



MET'MAP, la Météo Aéronautique d'un coup d'oeil ! - Copyright ORBIFLY Décembre 2007 - Disclaimer

ORBIFLY MET'MAP TEAM :

Programmation & Développement : Alexandra Zaïnal
Sur une idée originale de : Baudouin d'Aumeries
Assistance à la programmation : Marc-Olivier Méhu
Soutien technique & logistique : Manuel Goepfert

Contact : metmap@orbifly.com




SOURCES & CREDITS :

   NOAA